createdAt,value
2022-12-04T00:01:58.177Z,77.36
2022-12-04T00:07:00.745Z,77.35
2022-12-04T00:12:03.497Z,77.45
2022-12-04T00:17:06.046Z,77.72
2022-12-04T00:22:09.160Z,77.54
2022-12-04T00:27:11.694Z,77.48
2022-12-04T00:32:15.098Z,77.52
2022-12-04T00:37:17.596Z,76.84
2022-12-04T00:42:20.186Z,77.37
2022-12-04T00:47:22.742Z,77.60
2022-12-04T00:52:25.531Z,76.86
2022-12-04T00:57:28.232Z,76.68
2022-12-04T01:02:31.098Z,76.24
2022-12-04T01:07:34.198Z,76.21
2022-12-04T01:12:36.946Z,76.49
2022-12-04T01:17:39.577Z,76.42
2022-12-04T01:22:42.579Z,76.52
2022-12-04T01:27:45.458Z,76.08
2022-12-04T01:32:48.438Z,76.04
2022-12-04T01:37:50.999Z,75.93
2022-12-04T01:42:54.081Z,76.33
2022-12-04T01:48:02.603Z,76.48
2022-12-04T01:53:05.592Z,76.30
2022-12-04T01:58:09.090Z,76.01
2022-12-04T02:03:13.640Z,75.95
2022-12-04T02:08:17.404Z,76.34
2022-12-04T02:13:46.012Z,76.27
2022-12-04T02:19:09.956Z,76.35
2022-12-04T02:24:57.377Z,75.97
2022-12-04T02:30:09.991Z,75.91
2022-12-04T02:35:38.659Z,75.59
2022-12-04T02:41:05.703Z,75.84
2022-12-04T02:46:18.878Z,76.49
2022-12-04T02:51:24.900Z,77.01
2022-12-04T02:56:33.164Z,76.55
2022-12-04T03:01:40.342Z,76.46
2022-12-04T03:06:47.563Z,76.29
2022-12-04T03:11:56.942Z,76.51
2022-12-04T03:17:06.309Z,76.55
2022-12-04T03:22:13.372Z,76.26
2022-12-04T03:27:53.207Z,76.47
2022-12-04T03:33:00.373Z,76.28
2022-12-04T03:38:21.612Z,76.36
2022-12-04T03:43:55.672Z,76.39
2022-12-04T03:49:09.378Z,76.43
2022-12-04T03:54:29.328Z,76.49
2022-12-04T03:59:56.402Z,75.70
2022-12-04T04:05:01.582Z,76.13
2022-12-04T04:10:13.058Z,76.05
2022-12-04T04:15:36.543Z,76.49
2022-12-04T04:21:03.276Z,76.39
2022-12-04T04:26:08.107Z,76.44
2022-12-04T04:31:51.128Z,76.45
2022-12-04T04:37:07.098Z,76.34
2022-12-04T04:42:25.051Z,75.79
2022-12-04T04:47:34.524Z,76.51
2022-12-04T04:52:41.298Z,76.42
2022-12-04T04:57:43.961Z,76.24
2022-12-04T05:02:49.517Z,76.29
2022-12-04T05:07:52.205Z,76.42
2022-12-04T05:12:54.862Z,76.34
2022-12-04T05:17:57.390Z,76.25
2022-12-04T05:22:59.944Z,76.16
2022-12-04T05:28:02.458Z,76.22
2022-12-04T05:33:05.054Z,75.96
2022-12-04T05:38:07.641Z,76.10
2022-12-04T05:43:10.196Z,76.12
2022-12-04T05:48:12.861Z,76.03
2022-12-04T05:53:15.451Z,75.78
2022-12-04T05:58:17.958Z,75.78
2022-12-04T06:03:21.227Z,75.23
2022-12-04T06:08:23.831Z,75.37
2022-12-04T06:13:26.467Z,75.17
2022-12-04T06:18:29.107Z,74.99
2022-12-04T06:23:31.650Z,75.09
2022-12-04T06:28:35.971Z,74.95
2022-12-04T06:33:39.702Z,74.42
2022-12-04T06:38:43.010Z,74.32
2022-12-04T06:43:45.930Z,74.16
2022-12-04T06:48:49.028Z,73.81
2022-12-04T06:53:52.072Z,73.62
2022-12-04T06:59:06.804Z,73.58
2022-12-04T07:04:16.145Z,73.29
2022-12-04T07:09:18.985Z,72.73
2022-12-04T07:14:21.965Z,72.68
2022-12-04T07:19:24.807Z,72.32
2022-12-04T07:24:27.527Z,71.97
2022-12-04T07:29:31.051Z,71.42
2022-12-04T07:34:35.826Z,71.42
2022-12-04T07:39:38.376Z,71.07
2022-12-04T07:44:41.267Z,70.36
2022-12-04T07:49:43.999Z,70.53
2022-12-04T07:54:46.775Z,69.94
2022-12-04T07:59:49.338Z,69.26
2022-12-04T08:04:52.447Z,69.44
2022-12-04T08:09:56.182Z,68.79
2022-12-04T08:15:00.146Z,68.87
2022-12-04T08:20:03.183Z,68.81
2022-12-04T08:25:06.443Z,68.48
2022-12-04T08:30:09.622Z,68.31
2022-12-04T08:35:12.183Z,67.98
2022-12-04T08:40:15.463Z,67.58
2022-12-04T08:45:18.046Z,67.24
2022-12-04T08:50:20.711Z,66.77
2022-12-04T08:55:23.414Z,66.86
2022-12-04T09:00:27.860Z,66.16
2022-12-04T09:05:31.205Z,66.10
2022-12-04T09:10:37.221Z,65.58
2022-12-04T09:15:41.026Z,65.14
2022-12-04T09:20:43.598Z,64.32
2022-12-04T09:25:46.176Z,64.28
2022-12-04T09:31:04.393Z,63.86
2022-12-04T09:36:07.259Z,63.65
2022-12-04T09:41:40.969Z,63.12
2022-12-04T09:46:52.503Z,62.83
2022-12-04T09:51:57.119Z,61.95
2022-12-04T09:57:12.527Z,61.73
2022-12-04T10:02:36.628Z,62.34
2022-12-04T10:08:00.001Z,61.66
2022-12-04T10:13:11.571Z,61.34
2022-12-04T10:18:23.613Z,61.38
2022-12-04T10:23:37.718Z,60.88
2022-12-04T10:28:53.555Z,60.54
2022-12-04T10:34:05.661Z,60.24
2022-12-04T10:39:22.063Z,59.89
2022-12-04T10:44:24.800Z,59.71
2022-12-04T10:49:29.774Z,59.13
2022-12-04T10:55:02.031Z,58.84
2022-12-04T11:00:35.126Z,59.52
2022-12-04T11:05:45.582Z,58.79
2022-12-04T11:11:01.455Z,58.46
2022-12-04T11:16:06.491Z,58.61
2022-12-04T11:21:16.563Z,57.60
2022-12-04T11:26:37.223Z,58.38
2022-12-04T11:31:41.156Z,57.86
2022-12-04T11:36:43.986Z,58.03
2022-12-04T11:41:47.201Z,58.32
2022-12-04T11:46:58.619Z,57.92
2022-12-04T11:52:45.979Z,58.14
2022-12-04T11:58:06.644Z,58.04
2022-12-04T12:03:28.184Z,58.49
2022-12-04T12:09:17.003Z,58.35
2022-12-04T12:14:34.190Z,59.02
2022-12-04T12:20:01.208Z,58.91
2022-12-04T12:25:27.102Z,59.05
2022-12-04T12:30:51.648Z,59.38
2022-12-04T12:36:08.370Z,59.62
2022-12-04T12:41:10.760Z,59.31
2022-12-04T12:46:21.072Z,59.68
2022-12-04T12:51:35.356Z,60.26
2022-12-04T12:56:46.305Z,60.79
2022-12-04T13:02:02.506Z,60.62
2022-12-04T13:07:24.003Z,60.73
2022-12-04T13:12:27.926Z,60.66
2022-12-04T13:17:39.663Z,60.80
2022-12-04T13:22:42.090Z,61.23
2022-12-04T13:28:17.167Z,61.49
2022-12-04T13:33:45.839Z,61.66
2022-12-04T13:39:19.127Z,61.82
2022-12-04T13:44:24.302Z,61.85
2022-12-04T13:49:33.158Z,62.41
2022-12-04T13:54:37.198Z,62.21
2022-12-04T13:59:41.154Z,62.31
2022-12-04T14:05:00.261Z,62.24
2022-12-04T14:10:23.581Z,62.56
2022-12-04T14:15:31.559Z,62.86
2022-12-04T14:20:37.177Z,62.92
2022-12-04T14:25:40.893Z,62.75
2022-12-04T14:30:45.851Z,63.42
2022-12-04T14:35:56.253Z,63.03
2022-12-04T14:41:01.801Z,63.31
2022-12-04T14:46:13.036Z,63.33
2022-12-04T14:51:34.898Z,63.42
2022-12-04T14:57:02.567Z,63.55
2022-12-04T15:02:11.620Z,63.77
2022-12-04T15:07:33.331Z,64.16
2022-12-04T15:12:42.721Z,64.01
2022-12-04T15:18:10.035Z,63.91
2022-12-04T15:23:33.288Z,63.66
2022-12-04T15:28:54.855Z,63.97
2022-12-04T15:34:01.290Z,64.28
2022-12-04T15:39:05.362Z,64.70
2022-12-04T15:44:49.973Z,64.77
2022-12-04T15:49:52.899Z,65.03
2022-12-04T15:54:59.925Z,64.98
2022-12-04T16:00:05.850Z,64.81
2022-12-04T16:05:34.975Z,65.04
2022-12-04T16:10:38.206Z,65.05
2022-12-04T16:15:43.921Z,64.97
2022-12-04T16:20:46.527Z,65.37
2022-12-04T16:25:53.433Z,65.56
2022-12-04T16:30:57.399Z,66.13
2022-12-04T16:36:00.035Z,65.70
2022-12-04T16:41:05.211Z,65.80
2022-12-04T16:46:16.188Z,65.88
2022-12-04T16:51:23.512Z,65.61
2022-12-04T16:56:26.137Z,65.91
2022-12-04T17:01:35.521Z,65.82
2022-12-04T17:06:38.753Z,66.04
2022-12-04T17:11:42.103Z,65.88
2022-12-04T17:16:47.136Z,65.83
2022-12-04T17:21:49.982Z,65.33
2022-12-04T17:26:52.514Z,65.89
2022-12-04T17:31:56.149Z,65.65
2022-12-04T17:36:58.870Z,65.91
2022-12-04T17:42:01.474Z,66.40
2022-12-04T17:47:04.524Z,66.61
2022-12-04T17:52:07.920Z,66.55
2022-12-04T17:57:10.548Z,66.78
2022-12-04T18:02:13.303Z,67.13
2022-12-04T18:07:15.998Z,66.87
2022-12-04T18:12:18.914Z,67.00
2022-12-04T18:17:21.935Z,66.77
2022-12-04T18:22:24.551Z,66.88
2022-12-04T18:27:27.387Z,67.23
2022-12-04T18:32:30.783Z,66.87
2022-12-04T18:37:34.150Z,67.45
2022-12-04T18:42:37.146Z,67.38
2022-12-04T18:47:39.740Z,67.56
2022-12-04T18:52:42.391Z,67.81
2022-12-04T18:57:45.285Z,67.96
2022-12-04T19:02:47.867Z,68.10
2022-12-04T19:07:51.520Z,68.34
2022-12-04T19:12:54.327Z,68.73
2022-12-04T19:17:57.047Z,68.60
2022-12-04T19:22:59.690Z,68.43
2022-12-04T19:28:03.290Z,69.28
2022-12-04T19:33:06.179Z,68.99
2022-12-04T19:38:09.131Z,69.06
2022-12-04T19:43:14.665Z,69.14
2022-12-04T19:48:17.260Z,69.18
2022-12-04T19:53:19.979Z,69.13
2022-12-04T19:58:26.175Z,69.53
2022-12-04T20:03:28.870Z,69.11
2022-12-04T20:08:31.474Z,69.18
2022-12-04T20:13:37.468Z,69.38
2022-12-04T20:18:41.651Z,69.82
2022-12-04T20:23:46.596Z,69.73
2022-12-04T20:28:49.746Z,69.74
2022-12-04T20:33:54.737Z,70.32
2022-12-04T20:38:58.659Z,69.77
2022-12-04T20:44:03.492Z,69.75
2022-12-04T20:49:20.618Z,70.14
2022-12-04T20:54:24.641Z,69.82
2022-12-04T20:59:27.331Z,70.29
2022-12-04T21:04:30.037Z,70.25
2022-12-04T21:09:32.774Z,70.39
2022-12-04T21:14:54.003Z,70.83
2022-12-04T21:19:56.784Z,71.09
2022-12-04T21:25:00.405Z,71.04
2022-12-04T21:30:03.253Z,71.06
2022-12-04T21:35:06.730Z,71.25
2022-12-04T21:40:10.920Z,70.79
2022-12-04T21:45:13.526Z,70.45
2022-12-04T21:50:16.224Z,70.79
2022-12-04T21:55:18.759Z,71.40
2022-12-04T22:00:21.389Z,70.83
2022-12-04T22:05:24.084Z,71.01
2022-12-04T22:10:26.690Z,70.72
2022-12-04T22:15:29.283Z,71.22
2022-12-04T22:20:32.731Z,71.56
2022-12-04T22:25:38.112Z,71.46
2022-12-04T22:30:40.830Z,71.47
2022-12-04T22:35:43.724Z,71.08
2022-12-04T22:40:46.802Z,71.50
2022-12-04T22:45:49.396Z,70.84
2022-12-04T22:51:15.331Z,71.35
2022-12-04T22:56:29.162Z,71.17
2022-12-04T23:01:34.008Z,71.14
2022-12-04T23:06:36.731Z,71.83
2022-12-04T23:11:40.327Z,71.83
2022-12-04T23:16:43.165Z,71.71
2022-12-04T23:21:50.761Z,71.92
2022-12-04T23:26:57.781Z,71.10
2022-12-04T23:32:00.540Z,71.69
2022-12-04T23:37:03.550Z,71.69
2022-12-04T23:42:06.255Z,71.80
2022-12-04T23:47:08.801Z,71.45
2022-12-04T23:52:11.430Z,71.73
2022-12-04T23:57:13.895Z,71.73
